Time;durP1;ratioP1;P1;durP2;ratioP2;P2;SDS_P1;SDS_P2;PMS_P1;PMS_P2;Temp;Humidity;BMP_temperature;BMP_pressure;BME280_temperature;BME280_humidity;BME280_pressure;Samples;Min_cycle;Max_cycle;Signal;HPM_P1;HPM_P2
2023/11/27 00:02:04;;;;;;;16.00;8.70;;;;;;;;;;771794;180;918715;-63
2023/11/27 00:04:30;;;;;;;11.17;7.50;;;;;;;;;;763721;181;917173;-71
2023/11/27 00:06:56;;;;;;;11.13;7.03;;;;;;;;;;774152;181;922182;-71
2023/11/27 00:09:22;;;;;;;9.20;7.43;;;;;;;;;;770893;178;915280;-64
2023/11/27 00:11:48;;;;;;;11.80;7.80;;;;;;;;;;773489;180;866920;-65
2023/11/27 00:14:14;;;;;;;12.55;8.07;;;;;;;;;;771231;181;924163;-65
2023/11/27 00:16:39;;;;;;;11.07;8.20;;;;;;;;;;765374;182;923949;-64
2023/11/27 00:19:05;;;;;;;11.63;6.73;;;;;;;;;;771307;180;920201;-71
2023/11/27 00:21:31;;;;;;;11.90;6.90;;;;;;;;;;770740;181;920064;-64
2023/11/27 00:23:57;;;;;;;14.67;9.53;;;;;;;;;;776434;180;816534;-64
2023/11/27 00:26:23;;;;;;;11.67;6.97;;;;;;;;;;773328;181;918325;-64
2023/11/27 00:28:49;;;;;;;10.63;6.77;;;;;;;;;;773684;178;815404;-65
2023/11/27 00:31:15;;;;;;;10.63;7.30;;;;;;;;;;779075;178;918669;-63
2023/11/27 00:33:41;;;;;;;9.03;6.57;;;;;;;;;;772951;181;919281;-64
2023/11/27 00:36:08;;;;;;;12.90;7.67;;;;;;;;;;769984;181;1022213;-64
2023/11/27 00:38:32;;;;;;;11.93;7.60;;;;;;;;;;779985;178;892577;-70
2023/11/27 00:40:58;;;;;;;10.35;7.72;;;;;;;;;;763792;180;920015;-63
2023/11/27 00:43:24;;;;;;;12.13;7.90;;;;;;;;;;765063;180;815983;-63
2023/11/27 00:45:50;;;;;;;10.23;7.07;;;;;;;;;;774352;178;818271;-70
2023/11/27 00:48:16;;;;;;;13.10;7.53;;;;;;;;;;779664;181;919328;-64
2023/11/27 00:50:42;;;;;;;12.07;7.93;;;;;;;;;;774349;180;919377;-64
2023/11/27 00:53:07;;;;;;;10.90;7.10;;;;;;;;;;767282;179;985355;-71
2023/11/27 00:55:33;;;;;;;10.67;6.90;;;;;;;;;;775980;180;924640;-71
2023/11/27 00:57:59;;;;;;;11.80;7.20;;;;;;;;;;774797;180;819092;-65
2023/11/27 01:00:25;;;;;;;11.10;7.40;;;;;;;;;;771509;178;910251;-64
2023/11/27 01:02:53;;;;;;;9.63;7.00;;;;;;;;;;777381;180;920808;-70
2023/11/27 01:05:17;;;;;;;10.07;7.70;;;;;;;;;;774379;181;917305;-71
2023/11/27 01:07:43;;;;;;;12.80;7.37;;;;;;;;;;769999;180;919634;-64
2023/11/27 01:10:09;;;;;;;16.77;6.70;;;;;;;;;;774786;178;823411;-65
2023/11/27 01:12:38;;;;;;;10.30;7.30;;;;;;;;;;775010;179;918989;-71
2023/11/27 01:15:00;;;;;;;9.83;7.10;;;;;;;;;;774083;180;918110;-64
2023/11/27 01:17:26;;;;;;;13.00;7.37;;;;;;;;;;770887;180;919832;-65
2023/11/27 01:19:53;;;;;;;11.97;7.43;;;;;;;;;;777638;178;887050;-70
2023/11/27 01:22:18;;;;;;;10.00;7.67;;;;;;;;;;775370;180;919052;-64
2023/11/27 01:24:44;;;;;;;18.93;7.77;;;;;;;;;;772721;180;918461;-64
2023/11/27 01:27:09;;;;;;;14.10;8.37;;;;;;;;;;775852;179;919284;-64
2023/11/27 01:29:35;;;;;;;11.93;9.13;;;;;;;;;;776150;180;920863;-64
2023/11/27 01:32:01;;;;;;;15.43;9.53;;;;;;;;;;773880;178;924128;-64
2023/11/27 01:34:27;;;;;;;13.70;9.33;;;;;;;;;;779279;179;899979;-64
2023/11/27 01:36:53;;;;;;;13.17;8.70;;;;;;;;;;762747;178;919150;-71
2023/11/27 01:39:19;;;;;;;13.53;7.97;;;;;;;;;;767618;178;904117;-64
2023/11/27 01:41:44;;;;;;;10.30;6.70;;;;;;;;;;772922;179;820361;-70
2023/11/27 01:44:10;;;;;;;13.63;8.07;;;;;;;;;;786943;177;818956;-70
2023/11/27 01:46:36;;;;;;;14.07;8.60;;;;;;;;;;778258;179;722665;-70
2023/11/27 01:49:02;;;;;;;17.10;8.83;;;;;;;;;;772773;179;911197;-70
2023/11/27 01:51:28;;;;;;;17.25;8.93;;;;;;;;;;781652;180;865924;-72
2023/11/27 01:53:54;;;;;;;16.27;10.70;;;;;;;;;;776603;177;927818;-64
2023/11/27 01:56:19;;;;;;;15.57;10.68;;;;;;;;;;772554;178;921891;-65
2023/11/27 01:58:46;;;;;;;15.50;9.10;;;;;;;;;;778501;180;918358;-71
2023/11/27 02:01:11;;;;;;;9.73;7.27;;;;;;;;;;773396;178;919249;-71
2023/11/27 02:03:37;;;;;;;14.23;7.03;;;;;;;;;;764588;181;922848;-70
2023/11/27 02:06:03;;;;;;;10.07;7.17;;;;;;;;;;773130;180;918285;-65
2023/11/27 02:08:31;;;;;;;9.23;6.40;;;;;;;;;;775914;180;918443;-71
2023/11/27 02:10:55;;;;;;;9.53;7.17;;;;;;;;;;770667;180;925986;-70
2023/11/27 02:13:21;;;;;;;11.80;8.30;;;;;;;;;;770923;180;1040254;-70
2023/11/27 02:15:46;;;;;;;10.20;6.97;;;;;;;;;;774835;180;918933;-70
2023/11/27 02:18:12;;;;;;;10.77;5.80;;;;;;;;;;771986;180;919280;-70
2023/11/27 02:20:38;;;;;;;15.80;8.53;;;;;;;;;;773137;178;918967;-70
2023/11/27 02:23:04;;;;;;;10.73;6.97;;;;;;;;;;778493;181;917568;-71
2023/11/27 02:25:30;;;;;;;11.27;6.30;;;;;;;;;;773765;180;918498;-64
2023/11/27 02:27:56;;;;;;;12.73;6.73;;;;;;;;;;773300;178;919216;-64
2023/11/27 02:30:21;;;;;;;10.50;6.97;;;;;;;;;;776426;180;918674;-70
2023/11/27 02:32:47;;;;;;;13.23;7.80;;;;;;;;;;767224;180;816733;-63
2023/11/27 02:35:13;;;;;;;10.27;6.57;;;;;;;;;;770920;180;920904;-69
2023/11/27 02:37:39;;;;;;;10.67;6.93;;;;;;;;;;769959;180;1021211;-70
2023/11/27 02:40:05;;;;;;;9.67;6.37;;;;;;;;;;777840;180;921467;-69
2023/11/27 02:42:31;;;;;;;11.10;7.17;;;;;;;;;;774588;180;815873;-64
2023/11/27 02:44:57;;;;;;;17.20;8.87;;;;;;;;;;772544;180;933620;-70
2023/11/27 02:47:23;;;;;;;13.00;7.23;;;;;;;;;;775390;180;918529;-70
2023/11/27 02:49:49;;;;;;;9.33;6.47;;;;;;;;;;771273;180;913494;-70
2023/11/27 02:52:14;;;;;;;13.17;7.57;;;;;;;;;;777371;176;910254;-65
2023/11/27 02:54:40;;;;;;;11.07;7.60;;;;;;;;;;764194;180;919820;-65
2023/11/27 02:57:08;;;;;;;11.27;7.00;;;;;;;;;;758124;181;923094;-64
2023/11/27 02:59:32;;;;;;;11.67;6.53;;;;;;;;;;772257;180;921623;-63
2023/11/27 03:01:58;;;;;;;9.30;6.70;;;;;;;;;;772732;179;917108;-63
2023/11/27 03:04:26;;;;;;;12.10;7.30;;;;;;;;;;774723;178;918884;-69
2023/11/27 03:06:49;;;;;;;11.60;7.50;;;;;;;;;;772259;180;918577;-69
2023/11/27 03:09:17;;;;;;;10.32;6.93;;;;;;;;;;771859;180;959344;-69
2023/11/27 03:11:41;;;;;;;11.00;7.33;;;;;;;;;;780089;180;896083;-69
2023/11/27 03:14:07;;;;;;;10.17;7.23;;;;;;;;;;768821;181;917505;-63
2023/11/27 03:16:33;;;;;;;10.67;7.63;;;;;;;;;;773452;178;914718;-63
2023/11/27 03:18:59;;;;;;;14.82;7.43;;;;;;;;;;779332;177;923203;-69
2023/11/27 03:21:24;;;;;;;11.50;7.23;;;;;;;;;;772004;180;920317;-70
2023/11/27 03:23:50;;;;;;;10.77;7.15;;;;;;;;;;769846;179;920076;-63
2023/11/27 03:26:16;;;;;;;11.90;7.27;;;;;;;;;;779863;178;816531;-69
2023/11/27 03:28:42;;;;;;;9.82;7.43;;;;;;;;;;771678;180;940063;-68
2023/11/27 03:31:09;;;;;;;10.83;7.50;;;;;;;;;;772380;180;918808;-64
2023/11/27 03:33:34;;;;;;;12.90;7.43;;;;;;;;;;768464;178;920809;-69
2023/11/27 03:36:00;;;;;;;11.70;7.33;;;;;;;;;;764445;181;908137;-63
2023/11/27 03:38:25;;;;;;;18.47;8.10;;;;;;;;;;772406;180;918981;-63
2023/11/27 03:40:51;;;;;;;9.10;6.30;;;;;;;;;;767763;180;919345;-69
2023/11/27 03:43:17;;;;;;;9.90;6.43;;;;;;;;;;777808;180;918454;-64
2023/11/27 03:45:43;;;;;;;9.77;6.00;;;;;;;;;;773357;178;907648;-64
2023/11/27 03:48:09;;;;;;;10.30;6.90;;;;;;;;;;774781;177;1011932;-64
2023/11/27 03:50:35;;;;;;;11.35;5.70;;;;;;;;;;772597;179;913193;-69
2023/11/27 03:53:00;;;;;;;9.97;7.00;;;;;;;;;;772426;180;915237;-63
2023/11/27 03:55:26;;;;;;;9.30;6.47;;;;;;;;;;774475;177;920705;-63
2023/11/27 03:57:52;;;;;;;10.00;6.87;;;;;;;;;;773864;180;918003;-64
2023/11/27 04:00:18;;;;;;;9.77;6.33;;;;;;;;;;767069;180;919230;-65
2023/11/27 04:02:44;;;;;;;14.00;6.60;;;;;;;;;;773032;180;876107;-69
2023/11/27 04:05:10;;;;;;;8.70;5.70;;;;;;;;;;768043;180;921639;-69
2023/11/27 04:07:36;;;;;;;8.60;6.60;;;;;;;;;;777540;180;915275;-64
2023/11/27 04:10:02;;;;;;;9.40;6.73;;;;;;;;;;772346;180;913312;-69
2023/11/27 04:12:27;;;;;;;10.87;7.13;;;;;;;;;;772572;179;915991;-63
2023/11/27 04:14:53;;;;;;;10.10;6.57;;;;;;;;;;781385;176;715524;-64
2023/11/27 04:17:19;;;;;;;7.30;6.20;;;;;;;;;;775567;178;917058;-64
2023/11/27 04:19:45;;;;;;;12.80;5.60;;;;;;;;;;775873;177;828834;-64
2023/11/27 04:22:11;;;;;;;9.60;6.30;;;;;;;;;;767734;181;919186;-64
2023/11/27 04:24:37;;;;;;;10.43;5.87;;;;;;;;;;765190;180;918363;-69
2023/11/27 04:27:02;;;;;;;11.07;5.90;;;;;;;;;;771866;178;1019474;-63
2023/11/27 04:29:28;;;;;;;8.97;5.10;;;;;;;;;;773687;180;920636;-69
2023/11/27 04:31:54;;;;;;;9.20;6.00;;;;;;;;;;781777;181;713602;-64
2023/11/27 04:34:20;;;;;;;10.90;5.83;;;;;;;;;;773937;178;920540;-64
2023/11/27 04:36:46;;;;;;;11.83;5.10;;;;;;;;;;770777;180;918986;-64
2023/11/27 04:39:12;;;;;;;12.40;5.60;;;;;;;;;;780019;178;885078;-69
2023/11/27 04:41:37;;;;;;;10.87;6.57;;;;;;;;;;769229;180;838457;-68
2023/11/27 04:44:03;;;;;;;14.17;7.37;;;;;;;;;;773222;178;917383;-65
2023/11/27 04:46:30;;;;;;;10.57;7.03;;;;;;;;;;777278;180;816607;-69
2023/11/27 04:48:55;;;;;;;17.67;6.93;;;;;;;;;;774962;178;916335;-63
2023/11/27 04:51:21;;;;;;;9.73;6.20;;;;;;;;;;772640;178;914078;-68
2023/11/27 04:53:47;;;;;;;12.90;6.97;;;;;;;;;;769995;178;920988;-69
2023/11/27 04:56:13;;;;;;;12.43;6.30;;;;;;;;;;769931;180;918928;-69
2023/11/27 04:58:39;;;;;;;14.73;7.50;;;;;;;;;;766367;180;919159;-70
2023/11/27 05:01:04;;;;;;;14.13;7.30;;;;;;;;;;773630;178;930497;-64
2023/11/27 05:03:30;;;;;;;11.93;6.30;;;;;;;;;;777998;181;916369;-69
2023/11/27 05:05:58;;;;;;;10.00;7.03;;;;;;;;;;767287;180;915840;-69
2023/11/27 05:08:23;;;;;;;14.00;7.00;;;;;;;;;;768455;180;822429;-63
2023/11/27 05:10:49;;;;;;;11.70;6.87;;;;;;;;;;777512;178;922356;-64
2023/11/27 05:13:14;;;;;;;9.30;5.87;;;;;;;;;;774241;180;819349;-69
2023/11/27 05:15:40;;;;;;;14.10;6.97;;;;;;;;;;777992;180;630984;-63
2023/11/27 05:18:06;;;;;;;9.20;5.77;;;;;;;;;;781860;178;633016;-68
2023/11/27 05:20:32;;;;;;;8.40;6.33;;;;;;;;;;760748;181;916641;-69
2023/11/27 05:22:58;;;;;;;10.90;6.60;;;;;;;;;;763071;180;821067;-69
2023/11/27 05:25:24;;;;;;;8.73;6.00;;;;;;;;;;780738;179;630637;-69
2023/11/27 05:27:50;;;;;;;10.55;7.22;;;;;;;;;;779468;179;926466;-69
2023/11/27 05:30:16;;;;;;;10.53;7.03;;;;;;;;;;775294;177;917317;-69
2023/11/27 05:32:42;;;;;;;12.40;6.33;;;;;;;;;;771024;180;923018;-63
2023/11/27 05:35:08;;;;;;;9.40;7.10;;;;;;;;;;775596;180;909491;-64
2023/11/27 05:37:33;;;;;;;11.27;6.47;;;;;;;;;;773908;177;908047;-64
2023/11/27 05:39:59;;;;;;;11.05;6.75;;;;;;;;;;774926;180;916582;-69
2023/11/27 05:42:26;;;;;;;11.43;7.43;;;;;;;;;;780077;177;916405;-64
2023/11/27 05:44:51;;;;;;;17.90;9.07;;;;;;;;;;775443;180;914569;-63
2023/11/27 05:47:17;;;;;;;10.23;7.23;;;;;;;;;;768973;179;918411;-70
2023/11/27 05:49:42;;;;;;;10.63;7.30;;;;;;;;;;772878;180;918944;-64
2023/11/27 05:52:08;;;;;;;11.97;8.00;;;;;;;;;;771448;179;921276;-69
2023/11/27 05:54:34;;;;;;;10.43;8.00;;;;;;;;;;776967;176;918712;-68
2023/11/27 05:57:02;;;;;;;14.67;9.00;;;;;;;;;;767203;180;921716;-69
2023/11/27 05:59:26;;;;;;;11.33;7.40;;;;;;;;;;764571;180;921579;-64
2023/11/27 06:01:53;;;;;;;11.40;7.80;;;;;;;;;;774058;180;925473;-69
2023/11/27 06:04:17;;;;;;;9.50;7.90;;;;;;;;;;771649;180;919086;-68
2023/11/27 06:06:43;;;;;;;16.17;8.30;;;;;;;;;;777263;180;918485;-71
2023/11/27 06:09:09;;;;;;;13.30;7.93;;;;;;;;;;769017;180;914184;-65
2023/11/27 06:11:35;;;;;;;11.83;7.97;;;;;;;;;;765325;180;909749;-64
2023/11/27 06:14:01;;;;;;;13.62;7.45;;;;;;;;;;769694;179;914327;-68
2023/11/27 06:16:28;;;;;;;12.03;6.90;;;;;;;;;;761271;180;913503;-69
2023/11/27 06:18:53;;;;;;;9.40;6.57;;;;;;;;;;765025;181;912128;-65
2023/11/27 06:21:19;;;;;;;11.30;7.57;;;;;;;;;;766860;180;916402;-69
2023/11/27 06:23:45;;;;;;;11.97;8.03;;;;;;;;;;778598;180;816745;-69
2023/11/27 06:26:12;;;;;;;11.00;7.93;;;;;;;;;;768251;180;917237;-65
2023/11/27 06:28:37;;;;;;;9.67;7.67;;;;;;;;;;773658;180;909601;-63
2023/11/27 06:31:03;;;;;;;13.17;7.73;;;;;;;;;;778104;180;916271;-69
2023/11/27 06:33:29;;;;;;;14.60;8.27;;;;;;;;;;766436;180;924148;-64
2023/11/27 06:35:55;;;;;;;11.90;8.30;;;;;;;;;;771165;177;915298;-69
2023/11/27 06:38:20;;;;;;;14.73;8.73;;;;;;;;;;775403;179;813629;-63
2023/11/27 06:40:47;;;;;;;11.30;7.70;;;;;;;;;;765441;179;919167;-70
2023/11/27 06:43:12;;;;;;;10.00;7.97;;;;;;;;;;776156;177;918692;-69
2023/11/27 06:45:38;;;;;;;13.17;7.97;;;;;;;;;;773125;177;918358;-69
2023/11/27 06:48:04;;;;;;;9.40;7.27;;;;;;;;;;778657;180;921470;-69
2023/11/27 06:50:30;;;;;;;12.60;8.13;;;;;;;;;;773275;177;918065;-64
2023/11/27 06:52:56;;;;;;;12.97;8.20;;;;;;;;;;772227;177;866969;-64
2023/11/27 06:55:21;;;;;;;13.77;9.03;;;;;;;;;;778479;179;916274;-69
2023/11/27 06:57:48;;;;;;;16.33;9.75;;;;;;;;;;772693;180;872191;-64
2023/11/27 07:00:15;;;;;;;17.10;8.43;;;;;;;;;;772488;180;920901;-62
2023/11/27 07:02:40;;;;;;;11.10;8.37;;;;;;;;;;777358;178;918097;-65
2023/11/27 07:05:05;;;;;;;16.00;9.90;;;;;;;;;;775193;178;817815;-64
2023/11/27 07:07:31;;;;;;;13.18;9.55;;;;;;;;;;772785;178;914408;-71
2023/11/27 07:09:57;;;;;;;16.20;10.17;;;;;;;;;;771960;178;821996;-69
2023/11/27 07:12:23;;;;;;;14.83;10.10;;;;;;;;;;770465;180;818391;-64
2023/11/27 07:14:49;;;;;;;15.30;8.57;;;;;;;;;;760851;180;913993;-64
2023/11/27 07:17:15;;;;;;;12.50;8.77;;;;;;;;;;772827;179;919016;-64
2023/11/27 07:19:41;;;;;;;12.70;8.77;;;;;;;;;;776568;180;918507;-65
2023/11/27 07:22:06;;;;;;;12.13;8.10;;;;;;;;;;773959;179;821062;-64
2023/11/27 07:24:32;;;;;;;12.90;8.13;;;;;;;;;;773020;180;920382;-64
2023/11/27 07:26:58;;;;;;;14.30;6.70;;;;;;;;;;778397;179;915120;-69
2023/11/27 07:29:24;;;;;;;12.70;7.80;;;;;;;;;;773248;180;1021262;-63
2023/11/27 07:31:50;;;;;;;13.43;9.57;;;;;;;;;;767692;178;915865;-65
2023/11/27 07:34:16;;;;;;;17.35;9.93;;;;;;;;;;776419;180;919089;-64
2023/11/27 07:36:42;;;;;;;20.10;10.47;;;;;;;;;;770139;180;911813;-64
2023/11/27 07:39:10;;;;;;;12.23;8.40;;;;;;;;;;773967;178;918658;-70
2023/11/27 07:41:35;;;;;;;11.37;7.77;;;;;;;;;;770552;180;919230;-64
2023/11/27 07:44:00;;;;;;;10.63;7.47;;;;;;;;;;776209;177;916537;-64
2023/11/27 07:46:26;;;;;;;12.87;7.80;;;;;;;;;;770412;179;922223;-70
2023/11/27 07:48:51;;;;;;;13.53;8.53;;;;;;;;;;777511;179;815771;-69
2023/11/27 07:51:17;;;;;;;14.10;10.30;;;;;;;;;;777525;179;914675;-70
2023/11/27 07:53:44;;;;;;;13.10;7.20;;;;;;;;;;772585;180;913801;-63
2023/11/27 07:56:10;;;;;;;17.40;10.60;;;;;;;;;;773460;178;915859;-69
2023/11/27 07:58:36;;;;;;;15.10;9.20;;;;;;;;;;777619;180;913712;-63
2023/11/27 08:01:01;;;;;;;18.47;8.20;;;;;;;;;;770703;180;927484;-63
2023/11/27 08:03:27;;;;;;;13.33;9.00;;;;;;;;;;773801;180;910630;-70
2023/11/27 08:05:53;;;;;;;14.00;8.37;;;;;;;;;;773059;180;1021829;-69
2023/11/27 08:08:19;;;;;;;11.00;7.87;;;;;;;;;;779048;177;917528;-69
2023/11/27 08:10:45;;;;;;;11.80;8.82;;;;;;;;;;754969;181;921138;-63
2023/11/27 08:13:11;;;;;;;12.80;8.20;;;;;;;;;;766682;180;919258;-64
2023/11/27 08:15:37;;;;;;;15.70;8.93;;;;;;;;;;780732;178;816774;-64
2023/11/27 08:18:04;;;;;;;23.70;15.83;;;;;;;;;;775006;180;917986;-64
2023/11/27 08:20:29;;;;;;;19.37;12.00;;;;;;;;;;774922;178;816710;-70
2023/11/27 08:22:55;;;;;;;11.37;8.10;;;;;;;;;;777931;180;916882;-63
2023/11/27 08:25:21;;;;;;;12.23;8.63;;;;;;;;;;771415;180;918142;-64
2023/11/27 08:27:47;;;;;;;12.60;7.37;;;;;;;;;;773823;178;871292;-71
2023/11/27 08:30:14;;;;;;;13.20;7.80;;;;;;;;;;763361;183;897858;-63
2023/11/27 08:32:40;;;;;;;13.77;8.30;;;;;;;;;;774635;179;962605;-64
2023/11/27 08:35:06;;;;;;;11.37;7.63;;;;;;;;;;764152;180;925946;-69
2023/11/27 08:37:35;;;;;;;14.10;7.57;;;;;;;;;;774258;180;919143;-65
2023/11/27 08:39:59;;;;;;;12.23;7.80;;;;;;;;;;776977;180;909635;-69
2023/11/27 08:42:25;;;;;;;11.33;7.20;;;;;;;;;;773871;179;823608;-64
2023/11/27 08:44:50;;;;;;;13.97;8.73;;;;;;;;;;772258;180;915382;-63
2023/11/27 08:47:17;;;;;;;10.85;7.57;;;;;;;;;;773475;178;817795;-64
2023/11/27 08:49:42;;;;;;;12.50;8.17;;;;;;;;;;761472;179;970359;-64
2023/11/27 08:52:08;;;;;;;10.33;7.90;;;;;;;;;;773897;180;916834;-63
2023/11/27 08:54:34;;;;;;;13.30;8.00;;;;;;;;;;773612;181;921331;-64
2023/11/27 08:56:59;;;;;;;12.63;8.17;;;;;;;;;;779181;180;914769;-70
2023/11/27 08:59:25;;;;;;;12.90;7.63;;;;;;;;;;776205;178;902275;-69
2023/11/27 09:01:52;;;;;;;16.40;8.43;;;;;;;;;;768089;179;818304;-67
2023/11/27 09:04:18;;;;;;;16.37;8.77;;;;;;;;;;770405;179;897891;-64
2023/11/27 09:06:44;;;;;;;11.10;7.37;;;;;;;;;;774424;178;915680;-70
2023/11/27 09:09:11;;;;;;;10.47;6.83;;;;;;;;;;768332;180;910069;-64
2023/11/27 09:11:35;;;;;;;12.13;7.37;;;;;;;;;;774754;178;911749;-64
2023/11/27 09:14:01;;;;;;;12.43;8.10;;;;;;;;;;769672;179;922364;-64
2023/11/27 09:16:27;;;;;;;10.07;7.13;;;;;;;;;;766439;178;916326;-64
2023/11/27 09:18:53;;;;;;;12.25;7.35;;;;;;;;;;768398;178;920916;-68
2023/11/27 09:21:19;;;;;;;12.17;7.50;;;;;;;;;;770869;180;920032;-65
2023/11/27 09:23:44;;;;;;;12.77;8.20;;;;;;;;;;770432;178;913407;-64
2023/11/27 09:26:10;;;;;;;12.83;7.97;;;;;;;;;;769871;181;829805;-65
2023/11/27 09:28:36;;;;;;;13.23;8.00;;;;;;;;;;779320;180;815502;-65
2023/11/27 09:31:02;;;;;;;16.10;8.87;;;;;;;;;;765525;180;961624;-69
2023/11/27 09:33:28;;;;;;;12.70;8.67;;;;;;;;;;764990;181;806497;-65
2023/11/27 09:35:54;;;;;;;16.33;9.52;;;;;;;;;;779513;178;810310;-65
2023/11/27 09:38:19;;;;;;;10.63;7.43;;;;;;;;;;771144;180;920319;-66
2023/11/27 09:40:46;;;;;;;13.17;8.40;;;;;;;;;;774537;180;919035;-69
2023/11/27 09:43:12;;;;;;;12.57;8.40;;;;;;;;;;775336;178;917551;-66
2023/11/27 09:45:37;;;;;;;17.40;8.53;;;;;;;;;;769592;179;817019;-67
2023/11/27 09:48:07;;;;;;;16.43;8.90;;;;;;;;;;771347;180;920739;-67
2023/11/27 09:50:29;;;;;;;13.77;8.40;;;;;;;;;;769624;180;915955;-66
2023/11/27 09:52:58;;;;;;;12.60;8.45;;;;;;;;;;779094;178;849054;-68
2023/11/27 09:55:24;;;;;;;12.60;8.50;;;;;;;;;;775121;178;853599;-66
2023/11/27 09:57:50;;;;;;;10.43;8.13;;;;;;;;;;772276;180;918984;-66
2023/11/27 10:00:19;;;;;;;14.03;8.20;;;;;;;;;;781629;180;817089;-68
2023/11/27 10:02:47;;;;;;;13.57;8.63;;;;;;;;;;772600;179;919691;-67
2023/11/27 10:05:16;;;;;;;13.57;9.00;;;;;;;;;;763958;180;815797;-67
2023/11/27 10:07:42;;;;;;;14.13;9.90;;;;;;;;;;771950;178;918833;-67
2023/11/27 10:10:08;;;;;;;12.30;8.03;;;;;;;;;;775256;180;916752;-68
2023/11/27 10:12:35;;;;;;;19.90;9.80;;;;;;;;;;775911;179;829400;-67
2023/11/27 10:15:02;;;;;;;16.07;10.23;;;;;;;;;;774080;177;918754;-67
2023/11/27 10:17:26;;;;;;;11.50;8.80;;;;;;;;;;778358;177;926410;-68
2023/11/27 10:19:52;;;;;;;15.88;10.68;;;;;;;;;;776478;177;818117;-67
2023/11/27 10:22:19;;;;;;;13.10;9.50;;;;;;;;;;773782;180;920767;-68
2023/11/27 10:24:44;;;;;;;16.33;10.10;;;;;;;;;;775561;180;881999;-68
2023/11/27 10:27:10;;;;;;;13.13;8.47;;;;;;;;;;769109;181;918671;-66
2023/11/27 10:29:35;;;;;;;11.13;8.50;;;;;;;;;;770493;180;815915;-67
2023/11/27 10:32:02;;;;;;;12.70;8.90;;;;;;;;;;772532;178;919486;-67
2023/11/27 10:34:27;;;;;;;12.50;8.67;;;;;;;;;;770476;181;811340;-68
2023/11/27 10:36:56;;;;;;;12.13;8.80;;;;;;;;;;771797;179;891851;-68
2023/11/27 10:39:19;;;;;;;14.50;10.57;;;;;;;;;;773754;180;919679;-68
2023/11/27 10:41:45;;;;;;;14.20;8.67;;;;;;;;;;776146;180;918088;-67
2023/11/27 10:44:11;;;;;;;15.93;8.77;;;;;;;;;;773370;180;817215;-67
2023/11/27 10:46:36;;;;;;;13.27;9.43;;;;;;;;;;773308;180;901873;-66
2023/11/27 10:49:03;;;;;;;11.40;9.23;;;;;;;;;;774812;180;919315;-68
2023/11/27 10:51:30;;;;;;;16.43;11.23;;;;;;;;;;770749;180;1033070;-68
2023/11/27 10:53:55;;;;;;;18.47;10.40;;;;;;;;;;773604;178;901783;-68
2023/11/27 10:56:20;;;;;;;17.93;10.13;;;;;;;;;;776928;178;624926;-68
2023/11/27 10:58:46;;;;;;;14.30;8.80;;;;;;;;;;780972;177;638777;-69
2023/11/27 11:01:12;;;;;;;20.50;11.03;;;;;;;;;;777574;177;618937;-68
2023/11/27 11:03:37;;;;;;;19.47;11.10;;;;;;;;;;775320;180;911028;-67
2023/11/27 11:06:03;;;;;;;18.10;10.27;;;;;;;;;;782471;178;620460;-68
2023/11/27 11:08:32;;;;;;;21.90;11.20;;;;;;;;;;774849;180;632687;-67
2023/11/27 11:10:55;;;;;;;20.10;12.27;;;;;;;;;;776570;178;914991;-66
2023/11/27 11:13:21;;;;;;;14.30;10.53;;;;;;;;;;774304;180;919137;-69
2023/11/27 11:15:51;;;;;;;16.10;10.17;;;;;;;;;;771668;180;824099;-66
2023/11/27 11:18:17;;;;;;;20.47;9.57;;;;;;;;;;772281;180;819525;-66
2023/11/27 11:20:46;;;;;;;15.07;10.57;;;;;;;;;;771294;178;887493;-66
2023/11/27 11:23:24;;;;;;;20.27;11.75;;;;;;;;;;779694;179;919158;-71
2023/11/27 11:26:21;;;;;;;14.83;10.07;;;;;;;;;;779111;177;906621;-70
2023/11/27 11:28:33;;;;;;;14.50;10.60;;;;;;;;;;774791;180;918607;-69
2023/11/27 11:31:03;;;;;;;15.73;10.63;;;;;;;;;;772491;178;920127;-68
2023/11/27 11:33:29;;;;;;;17.70;10.73;;;;;;;;;;772930;180;923915;-67
2023/11/27 11:35:54;;;;;;;17.73;10.57;;;;;;;;;;780082;180;740405;-67
2023/11/27 11:38:20;;;;;;;16.93;10.10;;;;;;;;;;775372;178;918578;-66
2023/11/27 11:40:47;;;;;;;18.87;10.98;;;;;;;;;;768195;180;816435;-67
2023/11/27 11:43:13;;;;;;;17.70;10.50;;;;;;;;;;772525;180;918287;-69
2023/11/27 11:45:39;;;;;;;16.47;10.83;;;;;;;;;;782230;179;927571;-69
2023/11/27 11:48:07;;;;;;;13.87;8.53;;;;;;;;;;773824;180;843077;-67
2023/11/27 11:50:31;;;;;;;18.50;9.67;;;;;;;;;;769002;180;919365;-68
2023/11/27 11:52:57;;;;;;;16.13;10.73;;;;;;;;;;771673;181;919007;-68
2023/11/27 11:55:25;;;;;;;16.53;9.93;;;;;;;;;;769734;180;919332;-67
2023/11/27 11:57:49;;;;;;;15.05;9.55;;;;;;;;;;759259;181;1020671;-71
2023/11/27 12:00:19;;;;;;;16.43;10.63;;;;;;;;;;777923;180;820507;-71
2023/11/27 12:02:41;;;;;;;15.00;10.37;;;;;;;;;;760039;181;815913;-72
2023/11/27 12:05:12;;;;;;;10.70;7.80;;;;;;;;;;771796;177;850298;-66
2023/11/27 12:07:32;;;;;;;14.57;9.90;;;;;;;;;;759073;182;919713;-70
2023/11/27 12:09:58;;;;;;;16.97;9.63;;;;;;;;;;781814;180;817762;-67
2023/11/27 12:12:26;;;;;;;15.57;9.70;;;;;;;;;;772378;177;914454;-67
2023/11/27 12:14:54;;;;;;;17.00;10.93;;;;;;;;;;765915;177;1017926;-69
2023/11/27 12:17:16;;;;;;;13.80;9.97;;;;;;;;;;773501;181;711414;-69
2023/11/27 12:19:42;;;;;;;16.50;9.15;;;;;;;;;;772052;179;919812;-69
2023/11/27 12:22:08;;;;;;;15.00;10.83;;;;;;;;;;774254;179;925345;-69
2023/11/27 12:24:33;;;;;;;12.73;9.20;;;;;;;;;;776758;180;819317;-69
2023/11/27 12:26:59;;;;;;;14.63;9.40;;;;;;;;;;770072;178;918753;-67
2023/11/27 12:29:25;;;;;;;14.82;9.73;;;;;;;;;;774382;180;815752;-67
2023/11/27 12:31:51;;;;;;;16.40;10.50;;;;;;;;;;778497;180;819658;-69
2023/11/27 12:34:17;;;;;;;24.83;10.07;;;;;;;;;;775034;179;917555;-68
2023/11/27 12:36:44;;;;;;;16.70;10.90;;;;;;;;;;775267;179;920308;-69
2023/11/27 12:39:11;;;;;;;15.90;11.77;;;;;;;;;;772051;180;919243;-69
2023/11/27 12:41:34;;;;;;;16.43;10.50;;;;;;;;;;776217;180;917675;-66
2023/11/27 12:44:23;;;;;;;17.40;11.13;;;;;;;;;;761125;182;914535;-69
2023/11/27 12:46:49;;;;;;;17.80;11.73;;;;;;;;;;773710;178;916486;-69
2023/11/27 12:49:17;;;;;;;18.10;12.33;;;;;;;;;;768544;180;1021140;-66
2023/11/27 12:51:42;;;;;;;20.27;13.47;;;;;;;;;;777934;177;916180;-71
2023/11/27 12:54:18;;;;;;;16.83;10.10;;;;;;;;;;770736;180;919151;-66
2023/11/27 12:56:34;;;;;;;14.50;9.87;;;;;;;;;;773894;178;783676;-65
2023/11/27 12:59:00;;;;;;;12.67;9.37;;;;;;;;;;770282;181;917102;-65
2023/11/27 13:01:26;;;;;;;18.67;9.93;;;;;;;;;;780032;180;815597;-70
2023/11/27 13:03:52;;;;;;;20.20;12.10;;;;;;;;;;774620;177;906942;-66
2023/11/27 13:06:24;;;;;;;15.47;10.40;;;;;;;;;;774883;180;846776;-69
2023/11/27 13:08:44;;;;;;;17.30;10.60;;;;;;;;;;778939;180;949942;-70
2023/11/27 13:11:21;;;;;;;14.40;9.33;;;;;;;;;;773585;180;908208;-65
2023/11/27 13:13:35;;;;;;;17.07;10.70;;;;;;;;;;773669;177;909182;-65
2023/11/27 13:16:04;;;;;;;13.70;8.83;;;;;;;;;;767262;181;920296;-69
2023/11/27 13:18:28;;;;;;;15.00;8.17;;;;;;;;;;767100;177;921816;-65
2023/11/27 13:20:53;;;;;;;14.80;10.00;;;;;;;;;;770505;179;917742;-66
2023/11/27 13:23:20;;;;;;;15.80;9.60;;;;;;;;;;772128;180;925957;-65
2023/11/27 13:25:45;;;;;;;16.17;10.40;;;;;;;;;;769302;180;917274;-66
2023/11/27 13:28:16;;;;;;;15.57;9.70;;;;;;;;;;771874;180;922290;-65
2023/11/27 13:30:37;;;;;;;16.93;10.40;;;;;;;;;;770735;177;931279;-68
2023/11/27 13:33:09;;;;;;;14.77;9.00;;;;;;;;;;778665;181;883433;-69
2023/11/27 13:35:32;;;;;;;17.80;9.37;;;;;;;;;;770504;179;823298;-65
2023/11/27 13:37:55;;;;;;;18.67;11.00;;;;;;;;;;769242;177;926342;-68
2023/11/27 13:40:23;;;;;;;17.07;10.67;;;;;;;;;;774868;178;912126;-66
2023/11/27 13:42:47;;;;;;;15.83;11.50;;;;;;;;;;775929;180;814482;-69
2023/11/27 13:45:14;;;;;;;14.40;9.03;;;;;;;;;;771527;179;920489;-66
2023/11/27 13:47:39;;;;;;;10.67;7.80;;;;;;;;;;776246;180;917586;-69
2023/11/27 13:50:07;;;;;;;16.80;11.40;;;;;;;;;;772718;181;1016358;-69
2023/11/27 13:52:31;;;;;;;15.90;10.40;;;;;;;;;;772494;177;845946;-66
2023/11/27 13:54:56;;;;;;;17.07;10.60;;;;;;;;;;771119;180;917392;-68
2023/11/27 13:57:28;;;;;;;15.80;9.40;;;;;;;;;;773884;180;932640;-65
2023/11/27 13:59:53;;;;;;;17.97;10.93;;;;;;;;;;768589;180;919507;-65
2023/11/27 14:02:19;;;;;;;17.57;9.53;;;;;;;;;;761149;180;920318;-69
2023/11/27 14:04:54;;;;;;;17.87;10.57;;;;;;;;;;768811;181;918372;-65
2023/11/27 14:07:14;;;;;;;17.33;10.47;;;;;;;;;;776542;180;917983;-66
2023/11/27 14:09:58;;;;;;;15.10;10.40;;;;;;;;;;770724;178;918289;-69